Time;durP1;ratioP1;P1;durP2;ratioP2;P2;SDS_P1;SDS_P2;PMS_P1;PMS_P2;Temp;Humidity;BMP_temperature;BMP_pressure;BME280_temperature;BME280_humidity;BME280_pressure;Samples;Min_cycle;Max_cycle;Signal;HPM_P1;HPM_P2
2022/10/19 00:04:04;;;;;;;25.20;14.47;;;;;;;10.95;100.00;101275.81;3491683;83;26426;-84
2022/10/19 00:09:16;;;;;;;22.40;13.20;;;;;;;10.99;100.00;101273.92;3476679;83;99176;-85
2022/10/19 00:14:21;;;;;;;27.10;15.00;;;;;;;11.01;100.00;101280.66;3489163;83;33211;-84
2022/10/19 00:19:26;;;;;;;24.12;14.23;;;;;;;11.07;100.00;101284.73;3467223;83;99354;-85
2022/10/19 00:24:27;;;;;;;28.77;15.50;;;;;;;11.07;100.00;101286.70;3449348;83;32508;-85
2022/10/19 00:29:28;;;;;;;23.97;13.20;;;;;;;11.05;100.00;101284.87;3474433;82;99184;-85
2022/10/19 00:34:29;;;;;;;23.47;13.07;;;;;;;11.07;100.00;101283.95;3494246;83;25930;-85
2022/10/19 00:39:29;;;;;;;23.17;12.90;;;;;;;11.06;100.00;101276.25;3458788;83;99326;-86
2022/10/19 00:44:36;;;;;;;22.57;11.97;;;;;;;11.03;100.00;101272.86;3465415;83;25885;-85
2022/10/19 00:49:39;;;;;;;;;;;;;;;11.01;100.00;101277.13;3462515;83;99350;-85
2022/10/19 00:54:42;;;;;;;23.02;11.97;;;;;;;10.99;100.00;101276.11;3463712;83;32530;-85
2022/10/19 00:59:45;;;;;;;21.30;11.00;;;;;;;10.95;100.00;101273.06;3459591;83;99114;-85
2022/10/19 01:04:50;;;;;;;21.93;13.10;;;;;;;10.91;100.00;101278.46;3462996;83;33001;-85
2022/10/19 01:09:53;;;;;;;20.70;11.40;;;;;;;10.87;100.00;101271.28;3475477;83;98912;-85
2022/10/19 01:21:24;;;;;;;24.60;12.30;;;;;;;10.80;100.00;101264.24;3483144;83;33029;-85
2022/10/19 01:26:46;;;;;;;20.95;11.83;;;;;;;10.80;100.00;101259.52;3453992;83;99054;-85
2022/10/19 01:31:58;;;;;;;22.27;10.72;;;;;;;10.77;100.00;101256.69;3435459;84;33117;-85
2022/10/19 01:37:14;;;;;;;21.95;10.28;;;;;;;10.78;100.00;101255.52;3422390;84;99377;-85
2022/10/19 01:42:31;;;;;;;22.30;10.15;;;;;;;10.81;100.00;101247.94;3449936;84;32448;-84
2022/10/19 01:47:52;;;;;;;19.60;9.68;;;;;;;10.80;100.00;101260.89;3424958;84;99387;-84
2022/10/19 01:52:54;;;;;;;24.05;10.28;;;;;;;10.78;100.00;101260.47;3447448;84;30470;-85
2022/10/19 01:58:07;;;;;;;17.45;9.88;;;;;;;10.80;100.00;101250.47;3421080;85;99273;-84
2022/10/19 02:03:09;;;;;;;25.27;11.08;;;;;;;10.81;100.00;101249.31;3442329;85;32456;-85
2022/10/19 02:08:18;;;;;;;24.90;11.05;;;;;;;10.81;100.00;101249.31;3430061;83;99874;-84
2022/10/19 02:13:20;;;;;;;16.95;8.73;;;;;;;10.80;100.00;101249.09;3452743;84;32381;-84
2022/10/19 02:18:35;;;;;;;22.35;10.55;;;;;;;10.67;100.00;101222.25;3428772;84;98911;-85
2022/10/19 02:23:36;;;;;;;16.52;9.45;;;;;;;10.82;100.00;101239.89;3422925;84;31636;-84
2022/10/19 02:28:38;;;;;;;20.90;8.80;;;;;;;10.82;100.00;101236.57;3422889;85;99060;-85
2022/10/19 02:33:39;;;;;;;18.90;8.50;;;;;;;10.83;100.00;101235.41;3426122;84;25851;-85
2022/10/19 02:38:41;;;;;;;23.97;8.87;;;;;;;10.81;100.00;101242.42;3428999;82;99232;-84
2022/10/19 02:43:47;;;;;;;17.10;7.57;;;;;;;10.80;100.00;101242.22;3425754;84;27651;-84
2022/10/19 02:48:50;;;;;;;14.35;7.20;;;;;;;10.83;100.00;101245.61;3437673;84;98929;-84
2022/10/19 02:53:51;;;;;;;16.87;7.17;;;;;;;10.82;100.00;101242.64;3437949;84;32522;-83
2022/10/19 02:58:51;;;;;;;16.07;8.63;;;;;;;10.83;100.00;101236.78;3421032;84;98944;-83
2022/10/19 03:03:52;;;;;;;15.07;6.83;;;;;;;10.81;100.00;101236.36;3444597;84;26002;-84
2022/10/19 03:08:53;;;;;;;17.65;6.80;;;;;;;10.81;100.00;101239.11;3439291;83;98804;-85
2022/10/19 03:13:54;;;;;;;18.70;6.87;;;;;;;10.83;100.00;101236.78;3452628;84;26023;-84
2022/10/19 03:18:55;;;;;;;21.90;7.60;;;;;;;10.82;100.00;101228.31;3429295;84;99108;-85
2022/10/19 03:23:56;;;;;;;18.07;8.70;;;;;;;10.81;100.00;101234.17;3431035;84;25886;-84
2022/10/19 03:28:56;;;;;;;15.50;6.75;;;;;;;10.81;100.00;101234.17;3458477;83;99236;-85
2022/10/19 03:33:57;;;;;;;17.87;6.43;;;;;;;10.80;100.00;101240.84;3489036;83;33216;-84
2022/10/19 03:39:02;;;;;;;14.20;6.00;;;;;;;10.78;100.00;101239.00;3461627;83;99156;-83
2022/10/19 03:44:05;;;;;;;12.07;5.80;;;;;;;10.83;100.00;101229.90;3459268;83;26763;-84
2022/10/19 03:49:08;;;;;;;15.23;6.50;;;;;;;10.86;100.00;101233.30;3459136;83;99694;-84
2022/10/19 03:54:15;;;;;;;10.87;5.07;;;;;;;10.84;100.00;101225.98;3478061;83;25852;-84
2022/10/19 03:59:16;;;;;;;13.33;5.43;;;;;;;10.86;100.00;101225.63;3467865;83;98830;-84
2022/10/19 04:04:18;;;;;;;11.78;5.67;;;;;;;10.87;100.00;101221.72;3470996;83;33274;-84
2022/10/19 04:09:21;;;;;;;12.33;5.35;;;;;;;10.81;100.00;101230.84;3469989;83;99085;-84
2022/10/19 04:14:22;;;;;;;9.93;4.33;;;;;;;10.81;100.00;101236.36;3475985;83;25828;-84
2022/10/19 04:19:23;;;;;;;11.15;4.30;;;;;;;10.82;100.00;101237.95;3457631;83;99133;-84
2022/10/19 04:24:23;;;;;;;8.08;4.00;;;;;;;10.84;100.00;101241.13;3477337;83;33464;-84
2022/10/19 04:29:25;;;;;;;11.83;4.97;;;;;;;10.85;100.00;101238.59;3428993;84;98919;-84
2022/10/19 04:34:28;;;;;;;10.03;4.67;;;;;;;10.84;100.00;101246.64;3448576;84;33299;-84
2022/10/19 04:39:29;;;;;;;14.93;4.30;;;;;;;10.82;100.00;101249.53;3435492;83;98738;-84
2022/10/19 04:44:30;;;;;;;13.20;4.60;;;;;;;10.80;100.00;101249.09;3427973;84;34309;-84
2022/10/19 04:49:30;;;;;;;12.78;4.30;;;;;;;10.77;100.00;101237.41;3437923;84;98882;-84
2022/10/19 04:54:31;;;;;;;9.90;3.80;;;;;;;10.73;100.00;101239.27;3439037;84;34443;-85
2022/10/19 04:59:32;;;;;;;10.07;4.10;;;;;;;10.67;100.00;101240.14;3427082;84;98589;-85
2022/10/19 05:04:33;;;;;;;9.80;3.63;;;;;;;10.65;100.00;101249.34;3436008;84;34366;-85
2022/10/19 05:09:34;;;;;;;12.37;3.87;;;;;;;10.61;100.00;101240.20;3442693;84;98863;-84
2022/10/19 05:14:35;;;;;;;12.40;3.70;;;;;;;10.59;100.00;101250.78;3436551;84;34351;-84
2022/10/19 05:19:36;;;;;;;9.05;3.10;;;;;;;10.52;100.00;101230.55;3440839;85;98968;-85
2022/10/19 05:24:36;;;;;;;12.77;3.70;;;;;;;10.52;100.00;101230.55;3447754;84;31651;-85
2022/10/19 05:29:37;;;;;;;8.30;3.20;;;;;;;10.64;100.00;101250.48;3465970;83;99228;-85
2022/10/19 05:34:38;;;;;;;13.07;3.97;;;;;;;10.62;100.00;101261.63;3490441;83;31675;-85
2022/10/19 05:39:39;;;;;;;10.20;2.73;;;;;;;10.61;100.00;101258.09;3473486;83;98900;-85
2022/10/19 05:44:40;;;;;;;12.10;4.37;;;;;;;10.63;100.00;101264.03;3488230;83;31682;-86
2022/10/19 05:49:40;;;;;;;9.03;2.87;;;;;;;10.63;100.00;101264.63;3475571;83;98984;-85
2022/10/19 05:54:41;;;;;;;6.53;2.97;;;;;;;10.59;100.00;101270.61;3477120;83;31652;-86
2022/10/19 05:59:42;;;;;;;8.25;3.45;;;;;;;10.60;100.00;101273.02;3467877;83;99084;-86
2022/10/19 06:04:43;;;;;;;10.23;2.97;;;;;;;10.61;100.00;101282.05;3486941;83;26566;-85
2022/10/19 06:09:46;;;;;;;8.50;3.10;;;;;;;10.64;100.00;101294.53;3479855;83;98789;-85
2022/10/19 06:14:50;;;;;;;8.58;3.17;;;;;;;10.67;100.00;101291.08;3490523;83;30352;-84
2022/10/19 06:19:50;;;;;;;12.63;3.47;;;;;;;10.69;100.00;101298.39;3485915;83;98613;-86
2022/10/19 06:24:51;;;;;;;11.87;3.33;;;;;;;10.71;100.00;101295.29;3491615;83;25841;-85
2022/10/19 06:29:52;;;;;;;9.38;3.08;;;;;;;10.73;100.00;101292.41;3436081;83;98926;-85
2022/10/19 06:34:53;;;;;;;10.10;2.83;;;;;;;10.78;100.00;101294.07;3438696;84;34896;-86
2022/10/19 06:39:53;;;;;;;9.63;3.10;;;;;;;10.80;100.00;101302.20;3445840;82;98683;-86
2022/10/19 06:44:54;;;;;;;8.27;2.57;;;;;;;10.81;100.00;101313.45;3449947;84;35544;-86
2022/10/19 06:49:56;;;;;;;8.50;2.90;;;;;;;10.82;100.00;101308.17;3443021;83;98734;-86
2022/10/19 06:54:57;;;;;;;11.00;2.87;;;;;;;10.83;100.00;101311.70;3451469;84;36088;-86
2022/10/19 06:59:57;;;;;;;4.72;2.25;;;;;;;10.85;100.00;101310.78;3442797;83;99148;-86
2022/10/19 07:04:58;;;;;;;6.17;2.03;;;;;;;10.89;100.00;101324.04;3452674;84;28681;-87
2022/10/19 07:09:59;;;;;;;7.47;2.77;;;;;;;10.93;100.00;101334.00;3441666;83;98557;-88
2022/10/19 07:15:00;;;;;;;6.77;1.93;;;;;;;10.93;100.00;101332.63;3444584;84;25928;-89
2022/10/19 07:20:01;;;;;;;4.70;2.10;;;;;;;11.01;100.00;101340.48;3444860;83;98665;-88
2022/10/19 07:25:02;;;;;;;7.00;2.37;;;;;;;11.05;100.00;101339.41;3449501;84;28780;-89
2022/10/19 07:30:03;;;;;;;5.47;2.37;;;;;;;11.09;100.00;101338.11;3475730;82;98927;-88
2022/10/19 07:35:05;;;;;;;8.80;3.03;;;;;;;11.12;100.00;101347.05;3484137;83;32590;-89
2022/10/19 07:40:11;;;;;;;7.47;2.67;;;;;;;11.17;100.00;101349.53;3468572;83;99016;-87
2022/10/19 07:45:12;;;;;;;7.43;2.47;;;;;;;11.20;100.00;101355.68;3483565;83;26566;-88
2022/10/19 07:50:12;;;;;;;7.70;2.63;;;;;;;11.23;100.00;101358.52;3477039;83;98745;-88
2022/10/19 07:55:13;;;;;;;10.90;3.40;;;;;;;11.26;100.00;101352.30;3496120;83;27164;-88
2022/10/19 08:00:17;;;;;;;10.07;2.53;;;;;;;11.29;100.00;101354.32;3484444;83;98706;-86
2022/10/19 08:05:18;;;;;;;8.35;2.45;;;;;;;11.36;100.00;101356.45;3492407;83;36042;-86
2022/10/19 08:10:19;;;;;;;5.00;2.37;;;;;;;11.41;100.00;101352.84;3485160;83;98981;-87
2022/10/19 08:15:19;;;;;;;12.13;2.47;;;;;;;11.46;100.00;101353.13;3487922;83;28323;-86
2022/10/19 08:20:20;;;;;;;7.30;2.30;;;;;;;11.55;100.00;101357.27;3484518;83;99160;-85
2022/10/19 08:25:21;;;;;;;4.20;2.07;;;;;;;11.64;100.00;101358.48;3489300;83;26582;-86
2022/10/19 08:30:22;;;;;;;6.27;2.00;;;;;;;11.74;100.00;101372.51;3486179;83;98786;-86
2022/10/19 08:35:22;;;;;;;4.63;1.83;;;;;;;11.84;100.00;101365.61;3489669;83;33003;-86
2022/10/19 08:40:28;;;;;;;8.38;1.92;;;;;;;11.94;100.00;101369.17;3482528;83;98748;-85
2022/10/19 08:45:37;;;;;;;4.62;2.20;;;;;;;12.04;100.00;101370.75;3489350;83;32142;-84
2022/10/19 08:50:42;;;;;;;6.05;2.00;;;;;;;12.10;100.00;101372.66;3481964;83;98884;-85
2022/10/19 08:56:12;;;;;;;6.35;2.10;;;;;;;12.18;100.00;101371.62;3488631;83;31548;-85
2022/10/19 09:01:25;;;;;;;8.47;2.73;;;;;;;12.23;100.00;101365.80;3446411;83;30553;-85
2022/10/19 09:06:51;;;;;;;3.87;1.70;;;;;;;12.14;100.00;101357.75;3469351;83;98829;-84
2022/10/19 09:11:57;;;;;;;6.30;1.55;;;;;;;12.34;100.00;101380.03;3488163;83;27475;-85
2022/10/19 09:17:07;;;;;;;;;;;;;;;12.39;100.00;101380.31;3489039;83;98770;-85
2022/10/19 09:22:23;;;;;;;4.83;2.08;;;;;;;12.46;100.00;101376.29;3483047;83;33672;-86
2022/10/19 09:27:35;;;;;;;7.53;2.50;;;;;;;12.59;100.00;101378.52;3475409;83;98804;-85
2022/10/19 09:32:38;;;;;;;6.33;2.40;;;;;;;13.02;100.00;101388.38;3463536;84;32943;-86
2022/10/19 09:37:44;;;;;;;5.85;2.33;;;;;;;13.37;100.00;101384.20;3450546;82;99138;-86
2022/10/19 09:42:46;;;;;;;4.70;2.05;;;;;;;13.69;100.00;101392.95;3460352;84;27297;-87
2022/10/19 09:47:47;;;;;;;3.85;1.95;;;;;;;13.82;100.00;101387.38;3451861;83;98974;-87
2022/10/19 09:52:54;;;;;;;5.37;2.13;;;;;;;13.91;100.00;101401.75;3441387;84;26872;-87
2022/10/19 09:58:05;;;;;;;4.05;1.70;;;;;;;14.06;100.00;101393.23;3451165;84;99125;-87
2022/10/19 10:03:06;;;;;;;3.87;1.92;;;;;;;14.07;100.00;101403.13;3461059;83;33165;-86
2022/10/19 10:08:21;;;;;;;4.63;1.83;;;;;;;14.12;100.00;101401.41;3442695;83;99388;-87
2022/10/19 10:13:26;;;;;;;19.80;12.70;;;;;;;14.09;100.00;101411.88;3455964;84;33040;-88
2022/10/19 10:18:28;;;;;;;6.27;3.27;;;;;;;14.09;100.00;101407.72;3450693;84;99175;-87
2022/10/19 10:23:35;;;;;;;9.00;2.87;;;;;;;14.07;100.00;101425.88;3455648;84;31584;-86
2022/10/19 10:28:40;;;;;;;1.87;0.90;;;;;;;14.02;100.00;101453.88;3449407;83;98775;-89
2022/10/19 10:33:41;;;;;;;1.87;0.90;;;;;;;13.81;98.83;101445.28;3446438;84;33026;-88
2022/10/19 10:38:50;;;;;;;3.40;1.10;;;;;;;13.65;99.44;101442.70;3438080;84;98648;-87
2022/10/19 10:44:02;;;;;;;3.05;1.20;;;;;;;13.66;99.87;101440.71;3444672;84;33042;-88
2022/10/19 10:49:06;;;;;;;1.70;0.88;;;;;;;13.61;99.97;101445.98;3445467;83;98640;-88
2022/10/19 10:54:33;;;;;;;2.95;1.12;;;;;;;13.57;100.00;101451.27;3449107;84;30608;-87
2022/10/19 10:59:39;;;;;;;5.40;1.17;;;;;;;13.48;99.88;101454.87;3440923;84;98758;-88
2022/10/19 11:04:46;;;;;;;1.67;0.72;;;;;;;13.36;99.51;101459.22;3449139;84;32440;-87
2022/10/19 11:09:55;;;;;;;3.35;1.27;;;;;;;13.36;99.51;101459.22;3443622;84;98441;-86
2022/10/19 11:15:16;;;;;;;4.12;1.77;;;;;;;13.30;99.45;101460.11;3450256;84;33578;-87
2022/10/19 11:20:17;;;;;;;2.40;1.10;;;;;;;13.33;99.48;101466.86;3437107;84;98434;-86
2022/10/19 11:25:27;;;;;;;3.57;1.30;;;;;;;13.41;99.98;101460.30;3442855;84;28617;-85
2022/10/19 11:30:32;;;;;;;3.02;1.35;;;;;;;13.51;99.91;101457.69;3459670;82;98627;-85
2022/10/19 11:35:57;;;;;;;2.27;0.97;;;;;;;13.61;99.68;101459.02;3492264;83;27501;-84
2022/10/19 11:41:33;;;;;;;1.30;0.70;;;;;;;13.67;99.69;101459.71;3485295;83;98617;-83
2022/10/19 11:46:59;;;;;;;0.98;0.72;;;;;;;13.74;99.65;101445.19;3464645;83;98851;-84
2022/10/19 11:52:22;;;;;;;3.35;0.82;;;;;;;13.82;99.20;101457.94;3488639;83;28691;-86
2022/10/19 11:57:28;;;;;;;1.20;0.78;;;;;;;13.84;98.50;101455.62;3479876;83;99028;-84
2022/10/19 12:02:38;;;;;;;1.72;0.80;;;;;;;13.81;98.35;101442.52;3489930;83;28231;-85
2022/10/19 12:08:02;;;;;;;3.30;0.90;;;;;;;13.79;97.56;101441.50;3475089;83;98493;-85
2022/10/19 12:13:17;;;;;;;2.35;0.82;;;;;;;13.79;97.26;101449.80;3487516;83;32461;-85
2022/10/19 12:18:46;;;;;;;5.08;1.40;;;;;;;13.79;97.22;101442.89;3476049;83;98576;-87
2022/10/19 12:23:48;;;;;;;1.85;0.80;;;;;;;13.80;96.83;101451.39;3490547;83;32284;-85
2022/10/19 12:28:58;;;;;;;7.10;2.33;;;;;;;13.78;96.31;101451.55;3476070;83;98532;-85
2022/10/19 12:34:14;;;;;;;7.37;3.00;;;;;;;13.62;93.54;101448.96;3451786;84;31869;-87
2022/10/19 12:39:55;;;;;;;4.33;1.65;;;;;;;13.62;93.54;101448.96;3437876;84;98569;-88
2022/10/19 12:45:23;;;;;;;6.75;1.40;;;;;;;13.56;94.28;101449.64;3449722;84;32574;-88
2022/10/19 12:50:47;;;;;;;8.33;1.20;;;;;;;13.51;93.56;101446.63;3447317;83;98961;-87
2022/10/19 12:56:11;;;;;;;11.63;1.75;;;;;;;13.43;92.54;101457.37;3455241;84;32567;-87
2022/10/19 13:01:23;;;;;;;7.87;1.77;;;;;;;13.37;92.17;101454.72;3442338;84;33791;-87
2022/10/19 13:06:29;;;;;;;18.57;2.20;;;;;;;13.16;92.34;101423.14;3442226;84;98846;-88
2022/10/19 13:11:31;;;;;;;5.60;1.62;;;;;;;13.30;92.12;101451.81;3453189;84;32227;-88
2022/10/19 13:16:40;;;;;;;9.63;1.27;;;;;;;13.27;91.51;101449.81;3440568;84;98809;-88
2022/10/19 13:21:55;;;;;;;14.43;1.90;;;;;;;13.27;90.27;101465.01;3443254;84;31266;-89
2022/10/19 13:27:10;;;;;;;15.60;2.02;;;;;;;13.22;90.44;101460.36;3442472;83;99309;-86
2022/10/19 13:32:39;;;;;;;7.30;1.00;;;;;;;13.20;91.23;101461.33;3453931;83;30967;-87
2022/10/19 13:37:40;;;;;;;4.60;0.80;;;;;;;13.27;91.19;101465.01;3453191;83;98804;-86
2022/10/19 13:42:41;;;;;;;3.23;0.90;;;;;;;13.20;90.13;101469.62;3451166;84;28783;-89
2022/10/19 13:47:46;;;;;;;1.80;0.80;;;;;;;13.08;89.60;101473.36;3454770;83;98861;-84
2022/10/19 13:53:01;;;;;;;1.73;0.63;;;;;;;12.93;89.43;101477.00;3456760;84;31263;-87
2022/10/19 13:58:57;;;;;;;4.37;1.85;;;;;;;12.93;89.43;101477.00;3450243;84;98619;-88
2022/10/19 14:04:06;;;;;;;1.35;0.70;;;;;;;12.89;89.72;101473.96;3458473;84;32510;-87
2022/10/19 14:09:24;;;;;;;4.55;0.62;;;;;;;12.76;87.70;101488.52;3448515;83;98623;-87
2022/10/19 14:14:27;;;;;;;2.17;0.68;;;;;;;12.59;85.76;101484.84;3434929;84;30606;-88
2022/10/19 14:19:34;;;;;;;5.15;1.10;;;;;;;12.47;86.33;101485.56;3453227;83;98399;-88
2022/10/19 14:24:35;;;;;;;2.35;0.80;;;;;;;12.38;86.50;101478.89;3461562;84;32252;-87
2022/10/19 14:29:44;;;;;;;2.15;0.68;;;;;;;12.30;87.19;101488.20;3458881;84;98424;-87
2022/10/19 14:34:47;;;;;;;1.42;0.60;;;;;;;12.21;87.04;101483.46;3490221;83;30747;-87
2022/10/19 14:40:09;;;;;;;3.27;1.20;;;;;;;12.03;86.33;101484.23;3488703;83;98399;-88
2022/10/19 14:45:15;;;;;;;4.20;1.20;;;;;;;12.02;86.78;101489.55;3472627;83;30707;-88
2022/10/19 14:50:18;;;;;;;1.98;0.80;;;;;;;11.90;87.14;101499.33;3490952;83;98746;-88
2022/10/19 14:55:20;;;;;;;5.60;1.00;;;;;;;11.79;87.68;101499.09;3487927;83;32409;-88
2022/10/19 15:00:23;;;;;;;2.30;1.05;;;;;;;11.70;88.65;101501.23;3474636;83;98824;-88
2022/10/19 15:05:28;;;;;;;1.60;0.80;;;;;;;11.60;89.10;101498.21;3487933;83;33027;-87
2022/10/19 15:10:41;;;;;;;3.70;1.00;;;;;;;11.27;89.30;101488.11;3484933;83;98825;-87
2022/10/19 15:15:42;;;;;;;2.17;0.88;;;;;;;11.27;89.30;101488.11;3491609;83;32670;-88
2022/10/19 15:20:49;;;;;;;3.80;1.23;;;;;;;11.30;89.96;101518.55;3472912;83;98767;-88
2022/10/19 15:26:00;;;;;;;1.40;0.80;;;;;;;11.19;89.53;101522.98;3478063;83;33032;-89
2022/10/19 15:31:18;;;;;;;2.45;0.98;;;;;;;10.88;90.14;101498.70;3475836;83;98432;-88
2022/10/19 15:36:21;;;;;;;1.73;0.90;;;;;;;10.91;90.70;101529.69;3440719;84;98667;-89
2022/10/19 15:41:29;;;;;;;3.02;1.10;;;;;;;10.91;90.70;101529.69;3465935;84;33054;-89
2022/10/19 15:46:44;;;;;;;2.95;1.12;;;;;;;10.83;91.62;101537.52;3459628;84;98936;-89
2022/10/19 15:51:46;;;;;;;4.97;1.12;;;;;;;10.65;90.18;101529.34;3454863;84;31347;-88
2022/10/19 15:56:51;;;;;;;4.67;1.72;;;;;;;10.44;90.03;101538.37;3455859;83;98727;-89
2022/10/19 16:01:51;;;;;;;4.40;1.80;;;;;;;10.34;91.80;101541.05;3460414;84;33114;-89
2022/10/19 16:06:52;;;;;;;6.13;1.90;;;;;;;10.29;92.67;101545.97;3455541;83;98804;-88
2022/10/19 16:11:56;;;;;;;5.20;1.92;;;;;;;10.24;93.51;101549.00;3456513;84;32479;-88
2022/10/19 16:16:57;;;;;;;4.83;2.10;;;;;;;10.16;93.63;101555.41;3453459;84;98884;-88
2022/10/19 16:21:58;;;;;;;6.30;2.23;;;;;;;10.05;93.94;101559.79;3462843;84;26795;-88
2022/10/19 16:26:58;;;;;;;13.07;3.50;;;;;;;9.96;94.33;101563.20;3453221;84;98536;-88
2022/10/19 16:31:59;;;;;;;10.87;3.60;;;;;;;9.86;94.53;101565.84;3453777;84;25836;-89
2022/10/19 16:37:00;;;;;;;8.90;4.20;;;;;;;9.77;94.81;101574.77;3432132;83;98716;-89
2022/10/19 16:42:01;;;;;;;7.47;3.40;;;;;;;9.66;94.79;101575.00;3456474;84;25918;-89
2022/10/19 16:47:02;;;;;;;9.93;4.33;;;;;;;9.55;94.98;101580.72;3446691;83;98257;-89
2022/10/19 16:52:04;;;;;;;9.70;4.63;;;;;;;9.43;95.10;101584.05;3449671;84;26017;-90
2022/10/19 16:57:06;;;;;;;55.27;16.70;;;;;;;9.32;95.26;101588.38;3446912;83;98908;-89
2022/10/19 17:02:06;;;;;;;17.40;7.07;;;;;;;9.22;95.42;101591.55;3452056;84;25993;-90
2022/10/19 17:07:08;;;;;;;49.10;19.03;;;;;;;9.13;95.75;101601.81;3442013;83;98518;-90
2022/10/19 17:12:09;;;;;;;37.80;14.43;;;;;;;9.00;95.65;101604.30;3443042;84;26363;-89
2022/10/19 17:17:10;;;;;;;41.80;17.33;;;;;;;8.88;95.48;101606.41;3445330;83;98507;-90
2022/10/19 17:22:11;;;;;;;35.03;14.73;;;;;;;8.81;95.78;101620.45;3451678;84;26368;-91
2022/10/19 17:27:12;;;;;;;15.58;7.12;;;;;;;8.71;95.86;101625.78;3442051;83;98623;-94
2022/10/19 17:32:13;;;;;;;16.13;7.50;;;;;;;8.66;96.29;101634.77;3466519;83;33748;-92
2022/10/19 17:37:14;;;;;;;12.98;6.12;;;;;;;8.62;96.64;101633.27;3476921;83;98722;-92
2022/10/19 17:42:14;;;;;;;13.33;5.80;;;;;;;8.59;96.76;101638.62;3489689;83;33793;-92
2022/10/19 17:47:15;;;;;;;12.10;5.00;;;;;;;8.52;96.78;101630.14;3484301;83;98590;-90
2022/10/19 17:52:18;;;;;;;11.57;5.33;;;;;;;8.43;96.67;101632.94;3491179;83;33684;-89
2022/10/19 17:57:19;;;;;;;11.97;5.60;;;;;;;8.36;96.83;101643.65;3479808;83;98752;-90
2022/10/19 18:02:20;;;;;;;13.40;5.77;;;;;;;8.29;97.08;101641.98;3488059;83;33865;-90
2022/10/19 18:07:24;;;;;;;15.23;6.53;;;;;;;8.22;97.15;101641.70;3485984;83;98326;-90
2022/10/19 18:12:23;;;;;;;11.73;5.30;;;;;;;8.17;97.31;101647.91;3488232;83;33671;-90
2022/10/19 18:17:24;;;;;;;12.77;5.63;;;;;;;8.11;97.07;101664.31;3469713;83;98706;-90
2022/10/19 18:22:24;;;;;;;11.20;5.90;;;;;;;8.00;97.08;101664.45;3487105;83;33729;-90
2022/10/19 18:27:25;;;;;;;14.53;6.70;;;;;;;7.91;96.78;101667.22;3477083;83;98343;-90
2022/10/19 18:32:26;;;;;;;15.43;7.93;;;;;;;7.79;96.85;101666.33;3456321;83;33273;-90
2022/10/19 18:37:27;;;;;;;17.23;8.40;;;;;;;7.72;97.12;101668.75;3440491;83;98783;-89
2022/10/19 18:42:29;;;;;;;17.00;8.33;;;;;;;7.66;97.19;101666.78;3460584;84;32250;-90
2022/10/19 18:47:30;;;;;;;25.37;9.83;;;;;;;7.60;97.27;101669.45;3446999;84;98484;-91
2022/10/19 18:52:34;;;;;;;22.17;10.33;;;;;;;7.52;97.11;101675.75;3463435;84;31680;-91
2022/10/19 18:57:33;;;;;;;23.77;12.00;;;;;;;7.41;96.81;101674.48;3448403;82;98828;-92
2022/10/19 19:02:36;;;;;;;27.87;12.70;;;;;;;7.31;96.81;101675.41;3458884;84;31778;-92
2022/10/19 19:07:39;;;;;;;19.30;9.28;;;;;;;7.19;96.78;101679.38;3448585;83;99230;-92
2022/10/19 19:12:41;;;;;;;18.80;9.03;;;;;;;7.06;96.57;101676.23;3461136;84;33381;-93
2022/10/19 19:17:43;;;;;;;18.13;7.40;;;;;;;6.94;96.81;101690.58;3453150;83;98536;-92
2022/10/19 19:22:43;;;;;;;15.13;7.07;;;;;;;6.92;97.61;101686.55;3456303;84;32120;-91
2022/10/19 19:27:44;;;;;;;17.50;7.97;;;;;;;6.92;97.78;101696.92;3452920;83;98335;-92
2022/10/19 19:32:45;;;;;;;15.90;7.47;;;;;;;6.90;97.94;101699.18;3466260;83;32227;-91
2022/10/19 19:37:46;;;;;;;22.77;9.97;;;;;;;6.90;98.13;101696.45;3475464;83;98666;-90
2022/10/19 19:42:47;;;;;;;22.47;10.40;;;;;;;6.87;97.78;101694.92;3482896;83;32347;-92
2022/10/19 19:47:50;;;;;;;20.57;9.97;;;;;;;6.76;97.51;101702.62;3456277;83;98793;-90
2022/10/19 19:52:50;;;;;;;26.52;12.45;;;;;;;6.68;97.60;101699.33;3484708;83;32380;-90
2022/10/19 19:57:53;;;;;;;40.92;19.52;;;;;;;6.63;98.14;101700.84;3485267;83;98828;-89
2022/10/19 20:02:57;;;;;;;33.13;16.60;;;;;;;6.64;98.34;101711.20;3492733;83;32275;-90
2022/10/19 20:07:58;;;;;;;33.63;17.10;;;;;;;6.60;98.02;101702.84;3481311;83;98605;-89
2022/10/19 20:12:59;;;;;;;41.73;18.30;;;;;;;6.51;98.00;101708.06;3492896;83;31843;-89
2022/10/19 20:17:59;;;;;;;36.87;18.00;;;;;;;6.47;97.91;101712.00;3482291;83;98726;-89
2022/10/19 20:23:00;;;;;;;35.40;17.83;;;;;;;6.40;98.06;101711.66;3487445;83;31668;-90
2022/10/19 20:28:04;;;;;;;20.77;10.37;;;;;;;6.26;97.23;101722.45;3481987;83;98614;-89
2022/10/19 20:33:03;;;;;;;23.23;10.10;;;;;;;6.20;98.09;101727.83;3487470;83;31668;-90
2022/10/19 20:38:04;;;;;;;17.20;8.33;;;;;;;6.19;98.08;101724.84;3479667;83;98635;-90
2022/10/19 20:43:05;;;;;;;17.13;7.23;;;;;;;6.11;97.66;101723.69;3486511;83;32435;-90
2022/10/19 20:48:06;;;;;;;16.80;7.60;;;;;;;6.03;97.69;101723.66;3479898;83;98371;-90
2022/10/19 20:53:08;;;;;;;19.00;9.60;;;;;;;5.99;97.75;101719.94;3480556;83;31477;-90
2022/10/19 20:58:08;;;;;;;18.60;8.43;;;;;;;5.95;97.86;101720.34;3481928;83;98263;-90
2022/10/19 21:03:09;;;;;;;13.43;6.50;;;;;;;5.84;97.45;101727.98;3495503;83;31684;-90
2022/10/19 21:08:14;;;;;;;14.00;6.70;;;;;;;5.67;98.07;101714.21;3487973;83;98771;-92
2022/10/19 21:13:13;;;;;;;14.30;5.80;;;;;;;5.67;98.07;101714.21;3492548;83;26579;-92
2022/10/19 21:18:14;;;;;;;14.50;6.37;;;;;;;5.76;98.26;101727.91;3474538;83;99093;-91
2022/10/19 21:23:14;;;;;;;14.57;6.40;;;;;;;5.69;98.38;101739.30;3482019;83;35685;-92
2022/10/19 21:28:15;;;;;;;12.97;6.80;;;;;;;5.66;98.21;101736.37;3478950;83;98627;-91
2022/10/19 21:33:16;;;;;;;13.40;6.10;;;;;;;5.54;97.70;101737.50;3481773;83;35465;-91
2022/10/19 21:38:17;;;;;;;10.20;4.65;;;;;;;5.36;97.34;101741.23;3463630;83;98720;-92
2022/10/19 21:43:17;;;;;;;10.77;4.30;;;;;;;5.29;97.93;101738.94;3480903;83;35600;-91
2022/10/19 21:48:19;;;;;;;11.40;4.78;;;;;;;5.28;98.35;101735.14;3474517;83;98427;-91
2022/10/19 21:53:22;;;;;;;14.13;5.30;;;;;;;5.16;97.83;101730.26;3487023;83;31996;-92
2022/10/19 21:58:23;;;;;;;13.13;4.22;;;;;;;5.11;98.36;101733.11;3490837;83;98785;-92
2022/10/19 22:03:23;;;;;;;11.00;4.80;;;;;;;5.12;98.63;101730.62;3476760;83;26100;-92
2022/10/19 22:08:24;;;;;;;9.50;3.97;;;;;;;5.13;98.66;101731.44;3496418;83;98808;-92
2022/10/19 22:13:25;;;;;;;11.40;5.03;;;;;;;5.12;98.90;101743.47;3485854;83;32617;-91
2022/10/19 22:18:26;;;;;;;10.43;4.10;;;;;;;5.12;99.19;101739.38;3480378;83;98790;-89
2022/10/19 22:23:26;;;;;;;10.80;3.87;;;;;;;5.12;98.87;101740.75;3487712;83;32493;-89
2022/10/19 22:28:27;;;;;;;13.80;4.67;;;;;;;5.09;99.13;101748.17;3483445;83;98448;-88
2022/10/19 22:33:28;;;;;;;13.10;5.20;;;;;;;5.12;99.33;101756.55;3495593;83;28690;-89
2022/10/19 22:38:29;;;;;;;11.15;4.35;;;;;;;5.10;99.09;101751.97;3480309;83;98655;-89
2022/10/19 22:43:30;;;;;;;13.90;6.10;;;;;;;5.08;99.12;101756.91;3490493;83;26319;-89
2022/10/19 22:48:31;;;;;;;19.93;9.40;;;;;;;5.05;99.09;101756.17;3489765;83;98439;-89
2022/10/19 22:53:31;;;;;;;22.43;10.43;;;;;;;5.02;99.15;101753.25;3487779;83;26400;-89
2022/10/19 22:58:32;;;;;;;22.58;11.00;;;;;;;5.00;99.24;101763.11;3480343;83;98828;-89
2022/10/19 23:03:33;;;;;;;28.90;13.63;;;;;;;4.98;99.25;101759.06;3487380;83;26386;-89
2022/10/19 23:08:34;;;;;;;47.60;17.53;;;;;;;4.88;98.77;101762.02;3473846;83;98661;-90
2022/10/19 23:13:35;;;;;;;47.38;19.75;;;;;;;4.84;98.72;101761.02;3470865;83;26482;-89
2022/10/19 23:18:39;;;;;;;40.13;16.87;;;;;;;4.82;98.88;101766.80;3486475;83;98596;-88
2022/10/19 23:23:41;;;;;;;40.07;15.33;;;;;;;4.79;98.73;101770.13;3487412;83;26513;-89
2022/10/19 23:28:44;;;;;;;23.87;11.43;;;;;;;4.76;98.70;101763.90;3485473;83;98857;-89
2022/10/19 23:33:46;;;;;;;25.37;11.10;;;;;;;4.76;98.56;101768.56;3476883;83;26537;-89